Airfield :
LOGIN :

Register | Disclaimer

   EN    FR    IT 

 










Legend :    VFR   Marginal VFR   IFR   Intensive IFR   Very Intensive IFR
Visi :
Ceiling :
>= 8 km
>= 3000ft
5 to 8 km
1000 to 3000 ft
1500m to 5 km
500 to 1000 ft
800 to 1500m
200 to 500 ft
< 800m
< 200 ft
Symbols :   Thunderstorms  Fog  Heavy snow  Heavy precipitations  Wind > 20 kt
SIGMETs :     Misc.  Thunderstorms  Icing  Turbulence  Mountain Waves  Volcanic Ashes







- Airport Elevation : 267 ft


EGDR - Culdrose Navy

CURRENT METAR :
  • 191150Z 16016G31KT 2500 RA SCT003 BKN005 OVC010 14/13 Q0998 YLO2 TEMPO 1500 BR SCT002 AMB

EXPIRED METARs :
  • 191050Z 16018G31KT 7000 -RA SCT003 BKN005 14/13 Q0999 YLO2 TEMPO 1500 BR SCT002 AMB
  • 190950Z 16014KT 9999 FEW003 BKN005 14/13 Q1000 YLO1 TEMPO 2500 +RA FEW003 SCT004

TAF TAF EGDR
Valid from the 19 at 12:00 until the 19 at 21:00 UTC


191031Z 1912/1921 19018G35KT 6000 RA FEW004 SCT006
TEMPO 1912/1915 2500 +RA FEW003 SCT004
PROB30
TEMPO 1912/1915 1500 BR SCT002
BECMG 1915/1917 27020G38KT 9999 NSW FEW012 BKN015
TEMPO 1915/1921 7000 -SHRA SCT008 BKN015TCU
No reported NOTAMs for that airfield.



MET'MAP, your aeronautical weather chart ! - Copyright ORBIFLY December 2007 - Disclaimer

ORBIFLY MET'MAP TEAM :

Programming & Development : Alexandra Zaïnal
Concept & Development : Baudouin d'Aumeries
Co-Development & Prog : Marc-Olivier Méhu
Technical & hardware support : Manuel Goepfert

Contact : metmap@orbifly.com




SOURCES & CREDITS :

   NOAA